Time;durP1;ratioP1;P1;durP2;ratioP2;P2;SDS_P1;SDS_P2;PMS_P1;PMS_P2;Temp;Humidity;BMP_temperature;BMP_pressure;BME280_temperature;BME280_humidity;BME280_pressure;Samples;Min_cycle;Max_cycle;Signal;HPM_P1;HPM_P2
2021/04/20 00:00:59;;;;;;;13.75;10.73;;;;;;;10.83;69.69;98954.03;5115204;28;20030;-77
2021/04/20 00:03:24;;;;;;;14.82;10.88;;;;;;;10.39;69.30;98885.69;5115280;28;20019;-75
2021/04/20 00:05:50;;;;;;;12.45;10.95;;;;;;;10.50;69.50;98898.38;5114933;28;20040;-76
2021/04/20 00:08:15;;;;;;;13.65;11.32;;;;;;;10.52;68.99;98901.63;5096864;28;20024;-75
2021/04/20 00:10:41;;;;;;;13.38;11.13;;;;;;;10.56;69.19;98899.44;5097093;28;20028;-76
2021/04/20 00:13:06;;;;;;;11.98;10.15;;;;;;;10.82;69.47;98963.78;5114958;28;20414;-77
2021/04/20 00:15:33;;;;;;;13.98;11.50;;;;;;;10.86;69.45;98958.09;5115158;28;20012;-77
2021/04/20 00:18:01;;;;;;;9.73;8.77;;;;;;;10.71;69.38;98959.03;5115000;28;20103;-76
2021/04/20 00:20:27;;;;;;;11.65;9.55;;;;;;;10.73;69.83;98956.19;5096982;28;20027;-76
2021/04/20 00:22:53;;;;;;;10.40;7.63;;;;;;;10.32;69.65;98882.19;5114749;28;20020;-75
2021/04/20 00:25:19;;;;;;;11.73;9.40;;;;;;;10.50;69.62;98907.09;5114887;28;20027;-75
2021/04/20 00:27:45;;;;;;;10.50;7.78;;;;;;;10.75;69.67;98955.00;5097000;28;20122;-76
2021/04/20 00:30:12;;;;;;;9.23;7.85;;;;;;;10.79;69.66;98944.84;5114834;28;20398;-75
2021/04/20 00:32:37;;;;;;;11.43;8.57;;;;;;;10.79;69.66;98950.97;5114907;28;20059;-76
2021/04/20 00:35:04;;;;;;;10.77;8.43;;;;;;;10.39;69.35;98889.13;5096703;28;20054;-75
2021/04/20 00:37:30;;;;;;;10.15;8.50;;;;;;;10.70;69.31;98946.84;5114909;28;20031;-77
2021/04/20 00:39:56;;;;;;;12.43;10.02;;;;;;;10.68;69.73;98940.94;5114608;28;20425;-76
2021/04/20 00:42:21;;;;;;;12.10;8.48;;;;;;;10.48;69.94;98909.13;5114778;28;20337;-77
2021/04/20 00:44:47;;;;;;;10.75;7.80;;;;;;;10.39;69.65;98902.34;5114901;28;20326;-75
2021/04/20 00:47:13;;;;;;;11.50;9.38;;;;;;;10.82;69.66;98958.50;5116198;28;20027;-77
2021/04/20 00:49:38;;;;;;;10.43;8.65;;;;;;;10.76;69.40;98966.38;5118798;28;20019;-77
2021/04/20 00:52:04;;;;;;;9.65;8.27;;;;;;;10.71;69.72;98955.56;5118609;28;20019;-76
2021/04/20 00:54:30;;;;;;;10.38;8.00;;;;;;;10.72;70.00;98959.84;5118653;28;20023;-77
2021/04/20 00:56:55;;;;;;;10.57;8.57;;;;;;;10.48;69.72;98921.50;5118374;28;20039;-75
2021/04/20 00:59:21;;;;;;;12.93;8.00;;;;;;;10.46;70.13;98920.88;5100511;28;20015;-75
2021/04/20 01:01:47;;;;;;;8.05;7.25;;;;;;;10.60;69.62;98941.09;5118514;28;20471;-76
2021/04/20 01:04:14;;;;;;;9.80;6.80;;;;;;;10.78;69.67;98962.53;5100161;28;20106;-75
2021/04/20 01:06:44;;;;;;;10.00;7.22;;;;;;;10.80;70.05;98968.44;5118298;28;20066;-75
2021/04/20 01:09:10;;;;;;;9.55;7.80;;;;;;;10.42;69.62;98901.97;5118266;28;20485;-74
2021/04/20 01:11:38;;;;;;;7.55;6.00;;;;;;;10.82;69.33;98961.13;5118488;28;20034;-75
2021/04/20 01:14:05;;;;;;;9.18;6.32;;;;;;;10.40;69.71;98897.88;5100050;28;20127;-76
2021/04/20 01:16:32;;;;;;;7.47;6.22;;;;;;;10.87;69.54;98965.00;5100184;28;20020;-75
2021/04/20 01:18:58;;;;;;;7.13;6.13;;;;;;;10.56;69.17;98924.00;5100045;28;20045;-76
2021/04/20 01:21:24;;;;;;;6.60;5.57;;;;;;;10.78;68.84;98962.53;5118230;28;20027;-75
2021/04/20 01:24:04;;;;;;;5.78;4.93;;;;;;;10.86;69.36;98971.31;5100067;28;20016;-77
2021/04/20 01:26:33;;;;;;;3.83;3.40;;;;;;;10.86;68.55;98973.94;5118250;28;20402;-76
2021/04/20 01:29:00;;;;;;;5.57;3.75;;;;;;;10.80;69.01;98976.34;5117848;28;20023;-76
2021/04/20 01:31:30;;;;;;;7.68;4.43;;;;;;;10.82;68.34;98981.44;5117991;28;20106;-77
2021/04/20 01:33:56;;;;;;;5.38;4.03;;;;;;;10.61;68.39;98950.63;5117790;28;20425;-76
2021/04/20 01:36:24;;;;;;;6.10;4.63;;;;;;;10.82;68.46;98979.63;5117908;28;20019;-77
2021/04/20 01:38:51;;;;;;;4.15;3.63;;;;;;;10.68;68.72;98959.41;5099642;28;20022;-76
2021/04/20 01:41:19;;;;;;;4.85;4.03;;;;;;;10.61;68.63;98944.53;5117659;28;20342;-77
2021/04/20 01:43:48;;;;;;;5.55;4.15;;;;;;;10.62;68.52;98951.44;5117775;28;20425;-76
2021/04/20 01:46:15;;;;;;;6.40;4.32;;;;;;;10.57;68.87;98957.31;5117483;28;20387;-75
2021/04/20 01:48:42;;;;;;;4.10;3.70;;;;;;;10.74;69.01;98969.19;5117596;28;20445;-77
2021/04/20 01:51:08;;;;;;;4.45;3.45;;;;;;;10.56;68.68;98952.22;5117396;28;20024;-76
2021/04/20 01:53:33;;;;;;;5.00;3.80;;;;;;;10.74;68.86;98976.31;5117518;28;20023;-74
2021/04/20 01:56:00;;;;;;;4.43;3.80;;;;;;;10.32;68.62;98911.22;5099286;28;20027;-76
2021/04/20 01:58:28;;;;;;;5.72;4.07;;;;;;;10.77;68.98;98975.94;5099053;28;20027;-76
2021/04/20 02:00:54;;;;;;;4.18;3.70;;;;;;;10.70;69.71;98957.41;5117485;28;20050;-75
2021/04/20 02:03:21;;;;;;;3.83;3.38;;;;;;;10.85;68.82;98980.25;5117132;28;20047;-76
2021/04/20 02:05:47;;;;;;;3.45;2.92;;;;;;;10.71;68.72;98960.84;5116989;28;20051;-76
2021/04/20 02:08:12;;;;;;;6.28;4.65;;;;;;;10.77;69.00;98968.81;5117114;28;20028;-77
2021/04/20 02:10:38;;;;;;;7.13;5.05;;;;;;;10.09;69.08;98871.84;5117144;28;20106;-74
2021/04/20 02:13:03;;;;;;;6.63;5.97;;;;;;;10.66;69.25;98968.53;5117082;28;20208;-74
2021/04/20 02:15:29;;;;;;;8.25;6.82;;;;;;;10.26;68.95;98915.44;5117131;28;20027;-76
2021/04/20 02:17:56;;;;;;;9.45;7.82;;;;;;;10.66;69.63;98985.19;5117047;28;20028;-77
2021/04/20 02:20:23;;;;;;;9.73;7.18;;;;;;;10.40;69.71;98937.47;5117019;28;20038;-77
2021/04/20 02:22:49;;;;;;;8.05;6.38;;;;;;;10.24;69.67;98916.63;5116853;28;20055;-74
2021/04/20 02:25:17;;;;;;;6.95;4.95;;;;;;;10.19;69.69;98933.00;5116705;28;20020;-75
2021/04/20 02:27:45;;;;;;;5.30;4.40;;;;;;;10.53;69.45;98998.28;5098742;28;20026;-76
2021/04/20 02:30:12;;;;;;;4.63;4.07;;;;;;;10.51;70.23;98992.38;5116767;28;20023;-75
2021/04/20 02:32:38;;;;;;;11.88;7.97;;;;;;;9.86;69.71;98896.59;5116906;28;20031;-75
2021/04/20 02:35:07;;;;;;;9.82;6.72;;;;;;;10.43;69.94;98995.16;5116618;28;20020;-77
2021/04/20 02:37:35;;;;;;;5.45;4.75;;;;;;;10.30;70.44;98974.72;5116534;28;20027;-76
2021/04/20 02:40:03;;;;;;;4.25;3.17;;;;;;;10.21;70.19;98969.78;5098394;28;20016;-74
2021/04/20 02:42:31;;;;;;;3.78;2.63;;;;;;;10.24;70.72;99001.06;5116570;28;20019;-77
2021/04/20 02:45:00;;;;;;;2.78;2.58;;;;;;;10.29;70.39;99001.31;5116349;28;20039;-76
2021/04/20 02:47:28;;;;;;;2.88;2.60;;;;;;;10.34;70.40;99001.56;5098436;28;20340;-76
2021/04/20 02:49:53;;;;;;;4.40;3.65;;;;;;;9.76;70.50;98904.03;5098326;28;20051;-75
2021/04/20 02:52:20;;;;;;;3.88;3.42;;;;;;;10.37;69.98;99004.63;5116169;28;20078;-76
2021/04/20 02:54:45;;;;;;;4.10;3.13;;;;;;;10.42;70.19;99010.19;5116287;28;20025;-77
2021/04/20 02:57:12;;;;;;;4.60;3.60;;;;;;;10.34;70.29;98996.28;5116210;28;20348;-75
2021/04/20 02:59:38;;;;;;;3.95;3.45;;;;;;;9.97;70.05;98952.47;5116428;28;20444;-75
2021/04/20 03:02:04;;;;;;;4.90;3.63;;;;;;;9.84;70.55;98924.16;5116107;28;20055;-75
2021/04/20 03:04:29;;;;;;;4.75;4.18;;;;;;;10.33;70.30;99005.19;5097958;28;20123;-75
2021/04/20 03:06:55;;;;;;;3.85;3.03;;;;;;;9.96;70.64;98950.84;5115851;28;20048;-76
2021/04/20 03:09:21;;;;;;;4.88;4.38;;;;;;;10.30;70.33;98989.75;5097202;28;20027;-75
2021/04/20 03:11:55;;;;;;;4.68;4.28;;;;;;;10.42;70.34;99014.66;5116020;28;20030;-77
2021/04/20 03:14:21;;;;;;;4.90;4.20;;;;;;;10.30;70.26;99002.94;5115927;28;20024;-75
2021/04/20 03:16:47;;;;;;;4.65;3.85;;;;;;;10.26;70.04;98997.22;5115940;28;20099;-77
2021/04/20 03:19:12;;;;;;;4.28;3.80;;;;;;;10.17;69.74;98974.59;5116008;28;20102;-76
2021/04/20 03:21:40;;;;;;;4.97;3.70;;;;;;;10.42;69.86;99012.81;5115702;28;20020;-76
2021/04/20 03:24:06;;;;;;;5.40;3.45;;;;;;;10.01;69.94;98951.09;5115691;28;20421;-76
2021/04/20 03:26:37;;;;;;;5.15;4.07;;;;;;;10.31;69.57;98994.00;5115704;28;20106;-77
2021/04/20 03:29:04;;;;;;;5.47;4.40;;;;;;;10.52;69.51;99020.41;5115639;28;20027;-77
2021/04/20 03:31:29;;;;;;;5.93;4.88;;;;;;;10.44;69.28;99002.06;5115648;28;20063;-76
2021/04/20 03:33:58;;;;;;;5.80;5.20;;;;;;;10.58;69.21;99030.22;5115747;28;20037;-75
2021/04/20 03:36:30;;;;;;;7.13;6.22;;;;;;;10.53;69.35;99027.31;5097363;28;20495;-75
2021/04/20 03:39:10;;;;;;;8.38;6.47;;;;;;;10.63;68.94;99032.28;5097498;28;20023;-76
2021/04/20 03:42:02;;;;;;;7.97;6.97;;;;;;;10.50;69.37;99017.16;5115552;28;20041;-76
2021/04/20 03:44:38;;;;;;;11.07;7.67;;;;;;;10.31;69.16;98983.47;5115398;28;20020;-76
2021/04/20 03:47:08;;;;;;;9.75;7.68;;;;;;;10.58;69.02;99032.03;5115342;28;20568;-75
2021/04/20 03:49:37;;;;;;;10.30;7.25;;;;;;;10.60;69.15;99043.22;5115755;28;20020;-78
2021/04/20 03:52:11;;;;;;;7.35;5.72;;;;;;;10.59;69.00;99050.31;5115259;28;20023;-77
2021/04/20 03:54:38;;;;;;;5.25;4.75;;;;;;;10.11;68.35;98981.44;5115409;28;20024;-77
2021/04/20 03:57:03;;;;;;;8.68;7.18;;;;;;;10.57;68.56;99051.53;5115187;28;20030;-75
2021/04/20 03:59:30;;;;;;;9.13;6.82;;;;;;;10.47;68.47;99065.84;5115120;28;20099;-75
2021/04/20 04:01:59;;;;;;;10.57;8.32;;;;;;;10.38;68.30;99043.19;5115362;28;20401;-77
2021/04/20 04:04:27;;;;;;;8.88;6.65;;;;;;;10.22;68.65;99013.63;5115050;28;20019;-75
2021/04/20 04:06:54;;;;;;;8.77;6.28;;;;;;;9.98;68.28;98981.31;5115027;28;20048;-75
2021/04/20 04:09:19;;;;;;;9.05;6.95;;;;;;;10.44;68.48;99063.59;5115072;28;20019;-76
2021/04/20 04:12:01;;;;;;;8.35;6.15;;;;;;;10.28;68.66;99037.44;5097049;28;20019;-75
2021/04/20 04:14:29;;;;;;;6.85;5.35;;;;;;;9.98;68.63;98980.50;5115142;28;20024;-77
2021/04/20 04:17:00;;;;;;;9.20;5.60;;;;;;;10.44;68.64;99058.31;5097009;28;20024;-74
2021/04/20 04:19:34;;;;;;;6.85;4.57;;;;;;;10.55;68.43;99077.28;5115210;28;20053;-77
2021/04/20 04:22:27;;;;;;;5.53;4.40;;;;;;;10.60;68.57;99075.72;5117752;28;20028;-76
2021/04/20 04:24:55;;;;;;;4.40;3.75;;;;;;;10.64;67.96;99095.44;5108397;28;20440;-75
2021/04/20 04:27:25;;;;;;;6.53;4.63;;;;;;;10.46;67.92;99068.69;5101014;28;20012;-78
2021/04/20 04:29:54;;;;;;;9.68;6.40;;;;;;;10.64;68.09;99098.09;5119197;28;20493;-76
2021/04/20 04:32:20;;;;;;;16.33;9.32;;;;;;;10.21;68.00;99009.34;5118966;28;20448;-77
2021/04/20 04:34:48;;;;;;;18.75;10.27;;;;;;;10.63;68.12;99082.44;5119064;28;20015;-76
2021/04/20 04:37:18;;;;;;;19.65;11.25;;;;;;;10.54;67.38;99084.38;5118723;28;20028;-77
2021/04/20 04:39:44;;;;;;;11.98;8.25;;;;;;;10.46;68.06;99087.16;5118921;28;20015;-77
2021/04/20 04:42:11;;;;;;;9.20;6.43;;;;;;;10.48;67.02;99079.88;5100904;28;20034;-76
2021/04/20 04:44:37;;;;;;;7.43;5.25;;;;;;;10.56;67.37;99097.41;5118881;28;20526;-77
2021/04/20 04:47:05;;;;;;;6.93;5.82;;;;;;;9.94;66.88;99002.97;5118679;28;20023;-74
2021/04/20 04:49:32;;;;;;;7.10;5.32;;;;;;;10.13;67.13;99049.81;5118830;28;20375;-77
2021/04/20 04:51:59;;;;;;;6.03;4.82;;;;;;;10.51;67.23;99097.97;5118594;28;20016;-76
2021/04/20 04:54:26;;;;;;;5.43;4.25;;;;;;;10.46;66.67;99116.19;5118611;28;20429;-77
2021/04/20 04:56:53;;;;;;;6.00;5.20;;;;;;;10.19;66.57;99062.25;5100478;28;20031;-78
2021/04/20 04:59:19;;;;;;;5.78;4.63;;;;;;;10.54;66.95;99123.97;5118438;28;20322;-76
2021/04/20 05:01:45;;;;;;;5.63;4.78;;;;;;;10.47;66.67;99102.81;5118546;28;20067;-76
2021/04/20 05:04:12;;;;;;;5.60;4.97;;;;;;;10.48;66.29;99107.06;5118296;28;20035;-76
2021/04/20 05:06:44;;;;;;;7.65;5.05;;;;;;;10.57;66.15;99120.97;5118178;28;20445;-77
2021/04/20 05:09:11;;;;;;;7.15;5.80;;;;;;;10.62;66.41;99123.88;5118199;28;20436;-77
2021/04/20 05:11:39;;;;;;;6.88;5.80;;;;;;;10.67;66.08;99123.28;5118310;28;20094;-77
2021/04/20 05:14:05;;;;;;;9.88;6.90;;;;;;;10.62;66.47;99123.88;5118140;28;20376;-76
2021/04/20 05:16:31;;;;;;;6.40;4.90;;;;;;;10.44;66.14;99118.19;5118211;28;20012;-77
2021/04/20 05:19:01;;;;;;;6.25;4.65;;;;;;;10.42;65.87;99110.47;5118236;28;20049;-76
2021/04/20 05:21:27;;;;;;;4.40;4.00;;;;;;;10.04;66.12;99070.22;5117929;28;20027;-77
2021/04/20 05:23:53;;;;;;;5.43;4.43;;;;;;;10.53;65.77;99130.28;5118107;28;20102;-77
2021/04/20 05:26:18;;;;;;;6.03;5.35;;;;;;;10.38;65.82;99118.91;5117867;28;20161;-78
2021/04/20 05:28:44;;;;;;;7.13;4.88;;;;;;;10.25;66.26;99103.75;5118031;28;20024;-78
2021/04/20 05:31:09;;;;;;;5.82;5.20;;;;;;;9.99;65.86;99064.69;5099740;28;20020;-78
2021/04/20 05:33:35;;;;;;;7.88;5.00;;;;;;;10.57;65.96;99147.38;5102081;28;20020;-76
2021/04/20 05:36:08;;;;;;;6.60;5.30;;;;;;;10.27;65.79;99127.31;5097221;28;20043;-77
2021/04/20 05:38:34;;;;;;;6.05;5.22;;;;;;;10.34;65.57;99129.03;5096035;28;20139;-78
2021/04/20 05:41:02;;;;;;;6.03;5.35;;;;;;;10.49;65.41;99160.69;5082458;28;20142;-77
2021/04/20 05:43:27;;;;;;;7.07;6.00;;;;;;;10.22;65.68;99122.59;5094352;28;20023;-78
2021/04/20 05:45:53;;;;;;;8.60;7.40;;;;;;;10.08;65.64;99089.13;5080077;28;20032;-76
2021/04/20 05:48:18;;;;;;;8.50;7.57;;;;;;;10.05;65.73;99092.97;5096602;28;20026;-78
2021/04/20 05:50:50;;;;;;;6.47;5.38;;;;;;;10.19;65.47;99117.66;5095231;28;20130;-77
2021/04/20 05:53:16;;;;;;;7.00;6.32;;;;;;;9.60;65.95;99024.66;5096961;28;20485;-76
2021/04/20 05:55:41;;;;;;;6.60;6.00;;;;;;;10.21;65.59;99109.59;5090107;28;20099;-78
2021/04/20 05:58:07;;;;;;;6.68;5.97;;;;;;;10.61;65.18;99168.94;5096616;28;20020;-78
2021/04/20 06:00:33;;;;;;;9.93;8.93;;;;;;;10.63;64.89;99167.75;5095458;28;20032;-77
2021/04/20 06:03:00;;;;;;;5.47;4.97;;;;;;;10.41;64.56;99148.41;5096831;28;20518;-77
2021/04/20 06:05:27;;;;;;;4.95;4.45;;;;;;;10.63;64.33;99173.00;5078377;28;20055;-77
2021/04/20 06:07:54;;;;;;;6.20;5.25;;;;;;;10.52;64.60;99170.06;5096699;28;20032;-78
2021/04/20 06:10:20;;;;;;;6.38;5.80;;;;;;;10.71;64.33;99178.19;5094703;28;20035;-77
2021/04/20 06:12:47;;;;;;;6.20;5.70;;;;;;;10.69;64.11;99177.53;5095645;28;20061;-77
2021/04/20 06:15:20;;;;;;;7.20;6.50;;;;;;;10.42;64.12;99150.06;5095989;28;20095;-76
2021/04/20 06:17:46;;;;;;;7.22;6.53;;;;;;;10.60;64.09;99178.66;5095583;28;20024;-77
2021/04/20 06:20:14;;;;;;;7.38;6.65;;;;;;;10.68;64.55;99167.19;5095636;28;20020;-76
2021/04/20 06:22:41;;;;;;;6.40;5.80;;;;;;;10.82;64.17;99180.31;5095315;28;20024;-78
2021/04/20 06:25:18;;;;;;;6.32;5.82;;;;;;;10.71;63.20;99172.09;5087991;28;20307;-75
2021/04/20 06:27:44;;;;;;;5.70;5.20;;;;;;;10.80;63.18;99198.19;5095577;28;20024;-78
2021/04/20 06:30:11;;;;;;;6.22;5.63;;;;;;;10.93;63.19;99186.09;5092951;28;20024;-75
2021/04/20 06:32:38;;;;;;;6.70;6.05;;;;;;;10.78;63.02;99157.94;5095635;28;20016;-77
2021/04/20 06:35:06;;;;;;;6.50;5.90;;;;;;;10.87;62.58;99165.72;5095594;28;20024;-75
2021/04/20 06:37:41;;;;;;;6.88;5.22;;;;;;;11.03;62.15;99160.19;5081646;28;20028;-75
2021/04/20 06:40:13;;;;;;;5.93;5.43;;;;;;;11.00;62.26;99150.81;5081119;28;20385;-77
2021/04/20 06:42:52;;;;;;;7.53;6.50;;;;;;;10.88;61.56;99109.25;5093832;28;20468;-76
2021/04/20 06:45:26;;;;;;;7.78;7.07;;;;;;;10.83;62.02;99091.34;5090276;28;20385;-76
2021/04/20 06:48:05;;;;;;;6.88;6.18;;;;;;;11.59;61.11;99187.47;5094951;28;20032;-76
2021/04/20 06:50:32;;;;;;;7.32;6.60;;;;;;;11.72;61.24;99178.81;5093420;28;20020;-77
2021/04/20 06:53:03;;;;;;;7.88;7.07;;;;;;;11.54;60.81;99117.69;5094516;28;20024;-76
2021/04/20 06:55:47;;;;;;;6.15;5.60;;;;;;;12.03;59.71;99181.09;5088992;28;20085;-75
2021/04/20 06:58:22;;;;;;;7.57;6.80;;;;;;;12.06;59.77;99189.44;5092454;28;20424;-75
2021/04/20 07:00:54;;;;;;;6.35;5.75;;;;;;;12.04;59.82;99186.19;5094486;28;20020;-79
2021/04/20 07:03:51;;;;;;;7.32;6.28;;;;;;;12.25;58.86;99181.78;5093794;28;20024;-76
2021/04/20 07:06:31;;;;;;;7.97;6.60;;;;;;;12.13;58.87;99170.94;5073376;28;20040;-78
2021/04/20 07:09:21;;;;;;;7.75;6.97;;;;;;;12.09;59.24;99196.19;5087760;28;20108;-76
2021/04/20 07:11:48;;;;;;;8.98;7.03;;;;;;;11.64;59.09;99124.25;5093661;28;20020;-79
2021/04/20 07:14:29;;;;;;;7.32;6.65;;;;;;;11.77;59.45;99164.03;5096405;28;20024;-77
2021/04/20 07:17:23;;;;;;;7.75;7.05;;;;;;;12.06;59.27;99197.38;5094547;28;20409;-77
2021/04/20 07:20:28;;;;;;;7.38;6.65;;;;;;;12.08;59.59;99202.47;5084182;28;20096;-77
2021/04/20 07:22:59;;;;;;;7.63;6.82;;;;;;;12.18;58.91;99195.00;5086777;28;20042;-77
2021/04/20 07:25:51;;;;;;;7.45;6.68;;;;;;;12.18;59.35;99210.06;5094223;28;20028;-76
2021/04/20 07:28:48;;;;;;;6.47;5.90;;;;;;;12.21;57.65;99213.13;5088006;28;20024;-77
2021/04/20 07:31:24;;;;;;;6.47;5.97;;;;;;;11.96;58.65;99143.19;5058479;28;20046;-76
2021/04/20 07:33:57;;;;;;;8.98;6.35;;;;;;;12.34;57.65;99184.06;5094038;28;20450;-77
2021/04/20 07:36:42;;;;;;;7.22;6.63;;;;;;;12.58;57.55;99211.03;5076108;28;20389;-77
2021/04/20 07:39:20;;;;;;;6.70;5.82;;;;;;;12.57;55.83;99222.63;5094007;28;20118;-76
2021/04/20 07:41:52;;;;;;;7.25;6.55;;;;;;;12.56;55.52;99221.81;5093134;28;20032;-75
2021/04/20 07:44:35;;;;;;;7.03;6.32;;;;;;;12.58;56.80;99225.09;5087929;28;20099;-77
2021/04/20 07:47:12;;;;;;;7.93;7.13;;;;;;;12.62;56.80;99241.41;5090987;28;20101;-76
2021/04/20 07:50:08;;;;;;;8.18;7.40;;;;;;;12.64;56.91;99229.63;5092433;28;20489;-76
2021/04/20 07:52:56;;;;;;;7.68;6.97;;;;;;;12.43;55.79;99195.31;5091708;28;20024;-76
2021/04/20 07:55:25;;;;;;;11.45;9.68;;;;;;;12.94;56.30;99232.75;5090985;28;20026;-76
2021/04/20 07:57:54;;;;;;;8.10;7.30;;;;;;;12.70;56.18;99175.84;5077241;28;20114;-76
2021/04/20 08:00:30;;;;;;;7.72;6.90;;;;;;;12.98;54.62;99198.72;5087858;28;20034;-78
2021/04/20 08:03:05;;;;;;;8.32;7.53;;;;;;;13.35;54.90;99245.06;5095122;28;20055;-75
2021/04/20 08:05:39;;;;;;;7.93;7.18;;;;;;;12.94;54.77;99174.47;5093241;28;20164;-77
2021/04/20 08:08:31;;;;;;;7.90;6.88;;;;;;;13.41;54.91;99231.03;5094139;28;20056;-77
2021/04/20 08:11:02;;;;;;;9.25;8.32;;;;;;;13.58;55.23;99240.22;5082042;28;20028;-76
2021/04/20 08:13:30;;;;;;;10.23;9.18;;;;;;;13.49;55.74;99244.09;5093889;28;20036;-78
2021/04/20 08:16:01;;;;;;;8.38;7.50;;;;;;;13.49;55.26;99251.22;5092359;28;20543;-83
2021/04/20 08:19:10;;;;;;;8.85;7.70;;;;;;;13.52;53.62;99250.81;5088669;28;20425;-77
2021/04/20 08:21:39;;;;;;;10.02;7.97;;;;;;;13.65;53.97;99225.09;5012042;28;20049;-75
2021/04/20 08:24:07;;;;;;;9.70;8.13;;;;;;;13.68;54.42;99215.91;5067623;28;20127;-79
2021/04/20 08:26:39;;;;;;;9.70;8.80;;;;;;;14.12;53.99;99251.56;5089165;28;20110;-79
2021/04/20 08:29:33;;;;;;;9.15;8.35;;;;;;;14.23;52.44;99237.69;5077456;28;20063;-76
2021/04/20 08:32:14;;;;;;;8.98;8.18;;;;;;;13.99;52.73;99196.66;5090880;28;20071;-76
2021/04/20 08:34:45;;;;;;;10.63;9.10;;;;;;;14.34;53.48;99223.75;5075885;28;20115;-81
2021/04/20 08:37:25;;;;;;;9.93;9.00;;;;;;;14.48;52.69;99246.59;5092083;28;20346;-77
2021/04/20 08:40:15;;;;;;;10.00;9.00;;;;;;;14.45;53.07;99244.38;5084844;28;20105;-77
2021/04/20 08:43:00;;;;;;;9.50;8.60;;;;;;;14.26;51.34;99205.41;5091595;28;20024;-76
2021/04/20 08:45:50;;;;;;;8.60;7.90;;;;;;;14.56;50.42;99219.81;5093087;28;20027;-76
2021/04/20 08:48:52;;;;;;;11.00;8.82;;;;;;;14.93;50.68;99228.84;5093872;28;20032;-76
2021/04/20 08:51:53;;;;;;;15.55;11.07;;;;;;;15.20;50.94;99244.63;5078165;28;20063;-77
2021/04/20 08:54:47;;;;;;;10.37;9.33;;;;;;;15.00;50.52;99238.63;5093145;28;20095;-78
2021/04/20 08:57:25;;;;;;;10.10;9.10;;;;;;;14.61;50.80;99208.53;5091534;28;20063;-77
2021/04/20 09:00:11;;;;;;;9.75;8.70;;;;;;;14.90;49.08;99229.25;5076607;28;20129;-77
2021/04/20 09:03:10;;;;;;;10.15;9.07;;;;;;;15.30;48.85;99222.84;5091176;28;20045;-80
2021/04/20 09:05:42;;;;;;;11.02;8.77;;;;;;;15.08;46.93;99185.19;5064667;28;20071;-77
2021/04/20 09:08:14;;;;;;;9.02;8.07;;;;;;;15.60;47.34;99261.13;5090242;28;20028;-79
2021/04/20 09:10:46;;;;;;;9.05;8.07;;;;;;;15.70;48.14;99248.16;5094877;28;20295;-80
2021/04/20 09:13:22;;;;;;;9.60;8.25;;;;;;;15.27;48.46;99190.34;5105068;28;20028;-76
2021/04/20 09:15:50;;;;;;;8.55;7.75;;;;;;;14.90;48.28;99167.31;5087210;28;20028;-78
2021/04/20 09:18:23;;;;;;;9.73;8.75;;;;;;;15.44;48.38;99238.50;5093787;28;20081;-75
2021/04/20 09:21:00;;;;;;;10.73;9.65;;;;;;;15.20;48.05;99218.84;5083599;28;20024;-77
2021/04/20 09:23:44;;;;;;;9.40;8.60;;;;;;;15.55;47.41;99242.31;5097291;28;20422;-75
2021/04/20 09:26:16;;;;;;;9.25;7.82;;;;;;;15.95;47.26;99232.16;5097137;28;20429;-82
2021/04/20 09:28:54;;;;;;;10.82;9.55;;;;;;;16.02;46.96;99261.38;5092268;28;20032;-78
2021/04/20 09:31:23;;;;;;;9.68;8.05;;;;;;;15.46;46.27;99223.13;5069025;28;20036;-81
2021/04/20 09:33:54;;;;;;;9.93;9.02;;;;;;;15.35;46.31;99246.97;5106291;28;20031;-80
2021/04/20 09:36:24;;;;;;;10.95;9.93;;;;;;;14.95;47.77;99210.00;5073478;28;20493;-76
2021/04/20 09:38:50;;;;;;;10.75;9.73;;;;;;;15.07;48.11;99252.69;5090130;28;20454;-79
2021/04/20 09:41:28;;;;;;;11.43;10.23;;;;;;;14.74;47.83;99244.84;5095389;28;20024;-78
2021/04/20 09:44:06;;;;;;;10.80;9.13;;;;;;;14.66;48.60;99250.41;5094574;28;20327;-79
2021/04/20 09:47:10;;;;;;;10.13;9.13;;;;;;;14.62;48.88;99256.16;5094009;28;20032;-78
2021/04/20 09:49:38;;;;;;;11.10;9.18;;;;;;;14.54;49.07;99261.72;5090000;28;20040;-81
2021/04/20 09:52:25;;;;;;;10.80;9.70;;;;;;;14.91;47.88;99254.81;5082160;28;20062;-78
2021/04/20 09:54:57;;;;;;;12.38;11.05;;;;;;;14.97;46.54;99167.25;5076055;28;20441;-78
2021/04/20 09:57:27;;;;;;;13.52;10.00;;;;;;;15.84;46.75;99252.34;5095929;28;20027;-79
2021/04/20 09:59:57;;;;;;;11.40;10.27;;;;;;;16.14;46.74;99248.97;5095849;28;20392;-78
2021/04/20 10:02:42;;;;;;;11.73;10.18;;;;;;;16.26;46.21;99249.03;5091337;28;20119;-76
2021/04/20 10:05:30;;;;;;;10.77;9.63;;;;;;;16.70;45.96;99238.13;5057892;28;20029;-74
2021/04/20 10:08:09;;;;;;;12.98;10.13;;;;;;;17.05;45.12;99238.25;5094562;28;20123;-78
2021/04/20 10:10:57;;;;;;;9.68;8.88;;;;;;;16.96;42.05;99238.78;5094370;28;20016;-78
2021/04/20 10:13:44;;;;;;;10.63;8.90;;;;;;;16.89;44.17;99240.75;5084357;28;20108;-78
2021/04/20 10:16:25;;;;;;;10.68;9.65;;;;;;;16.71;43.56;99233.59;5087936;28;20039;-82
2021/04/20 10:19:12;;;;;;;8.10;7.40;;;;;;;16.63;40.82;99236.53;5090101;28;20031;-81
2021/04/20 10:21:42;;;;;;;8.15;7.35;;;;;;;16.43;42.74;99242.94;5091097;28;20109;-80
2021/04/20 10:24:13;;;;;;;18.25;16.45;;;;;;;15.69;42.96;99187.97;5082387;28;20024;-77
2021/04/20 10:26:47;;;;;;;9.45;8.57;;;;;;;16.02;44.23;99237.41;5093135;28;20035;-79
2021/04/20 10:29:19;;;;;;;9.88;8.88;;;;;;;16.42;43.73;99229.84;5090564;28;20036;-81
2021/04/20 10:31:56;;;;;;;9.63;8.63;;;;;;;16.68;42.42;99234.03;5094704;28;20111;-78
2021/04/20 10:34:22;;;;;;;9.23;7.45;;;;;;;16.50;42.40;99217.00;5078337;28;20046;-76
2021/04/20 10:36:51;;;;;;;9.18;8.27;;;;;;;16.91;42.12;99236.81;5076385;28;20055;-80
2021/04/20 10:39:19;;;;;;;9.70;8.80;;;;;;;16.20;41.91;99150.34;5094588;28;20502;-78
2021/04/20 10:41:46;;;;;;;10.80;9.63;;;;;;;16.59;42.54;99238.03;5089486;28;20032;-77
2021/04/20 10:44:14;;;;;;;10.88;9.77;;;;;;;16.18;41.70;99180.91;5092149;28;20032;-78
2021/04/20 10:46:40;;;;;;;9.75;8.75;;;;;;;16.60;40.41;99216.47;5074594;28;20028;-77
2021/04/20 10:49:07;;;;;;;9.65;8.75;;;;;;;17.32;40.16;99229.88;5095282;28;20035;-75
2021/04/20 10:51:36;;;;;;;9.75;8.85;;;;;;;17.60;38.87;99184.63;5090685;28;20028;-78
2021/04/20 10:54:05;;;;;;;9.70;8.80;;;;;;;17.96;37.95;99180.97;5090078;28;20063;-81
2021/04/20 10:56:31;;;;;;;9.50;8.60;;;;;;;18.46;37.81;99228.47;5098958;28;20023;-77
2021/04/20 10:59:00;;;;;;;11.10;10.07;;;;;;;18.22;38.12;99225.06;5097436;28;20081;-80
2021/04/20 11:01:29;;;;;;;13.15;10.23;;;;;;;18.26;38.28;99231.56;5089819;28;20021;-79
2021/04/20 11:03:58;;;;;;;9.45;8.60;;;;;;;18.21;37.98;99219.94;5068436;28;20115;-78
2021/04/20 11:07:01;;;;;;;9.98;8.75;;;;;;;17.82;38.20;99238.31;5095473;28;20040;-80
2021/04/20 11:09:34;;;;;;;9.18;8.45;;;;;;;17.50;37.28;99219.09;5095434;28;20417;-77
2021/04/20 11:12:11;;;;;;;10.48;9.38;;;;;;;17.40;37.29;99211.66;5095087;28;20467;-77
2021/04/20 11:14:38;;;;;;;10.52;9.63;;;;;;;16.94;36.61;99168.88;5095396;28;20058;-78
2021/04/20 11:17:08;;;;;;;9.77;8.88;;;;;;;17.29;37.42;99225.81;5095190;28;20063;-77
2021/04/20 11:19:41;;;;;;;10.35;9.45;;;;;;;17.31;37.02;99238.91;5094711;28;21127;-79
2021/04/20 11:22:13;;;;;;;9.60;8.70;;;;;;;17.33;36.79;99231.50;5094755;28;20060;-77
2021/04/20 11:24:43;;;;;;;11.68;8.95;;;;;;;16.46;36.39;99103.91;5100531;28;20028;-76
2021/04/20 11:27:11;;;;;;;10.25;9.35;;;;;;;17.71;35.59;99245.28;5092351;28;20039;-78
2021/04/20 11:29:46;;;;;;;10.65;9.52;;;;;;;18.10;34.47;99214.38;5094999;28;20358;-80
2021/04/20 11:32:19;;;;;;;11.40;10.35;;;;;;;18.37;34.75;99163.88;5076107;28;20426;-78
2021/04/20 11:34:47;;;;;;;11.82;10.32;;;;;;;19.13;33.47;99219.88;5087438;28;20062;-79
2021/04/20 11:37:20;;;;;;;9.75;8.85;;;;;;;19.29;32.73;99219.91;5094004;28;20111;-82
2021/04/20 11:40:05;;;;;;;11.07;9.98;;;;;;;19.66;31.55;99227.50;5093911;28;20028;-79
2021/04/20 11:42:47;;;;;;;10.13;9.20;;;;;;;19.59;32.64;99211.59;5093386;28;20028;-77
2021/04/20 11:45:24;;;;;;;10.05;9.05;;;;;;;19.16;32.31;99214.06;5090024;28;20312;-78
2021/04/20 11:48:01;;;;;;;10.85;9.85;;;;;;;19.00;31.61;99215.66;5095175;28;20477;-77
2021/04/20 11:50:34;;;;;;;9.73;8.82;;;;;;;19.23;32.97;99193.28;5094333;28;20335;-77
2021/04/20 11:53:04;;;;;;;10.35;9.35;;;;;;;19.38;32.92;99200.78;5095080;28;20031;-76